Time;durP1;ratioP1;P1;durP2;ratioP2;P2;SDS_P1;SDS_P2;PMS_P1;PMS_P2;Temp;Humidity;BMP_temperature;BMP_pressure;BME280_temperature;BME280_humidity;BME280_pressure;Samples;Min_cycle;Max_cycle;Signal;HPM_P1;HPM_P2
2023/07/07 00:00:52;;;;;;;3.27;1.90;;;;;;;;;;4980569;28;20280;-36
2023/07/07 00:03:17;;;;;;;5.13;3.10;;;;;;;;;;4971922;28;20289;-37
2023/07/07 00:05:43;;;;;;;4.77;2.67;;;;;;;;;;4981212;28;20308;-36
2023/07/07 00:08:08;;;;;;;6.13;2.60;;;;;;;;;;4984203;28;20300;-36
2023/07/07 00:10:34;;;;;;;4.43;1.73;;;;;;;;;;4982442;28;20412;-36
2023/07/07 00:12:59;;;;;;;5.90;3.00;;;;;;;;;;4981614;28;20018;-36
2023/07/07 00:15:24;;;;;;;6.25;2.70;;;;;;;;;;4984054;28;20288;-36
2023/07/07 00:17:50;;;;;;;3.17;2.08;;;;;;;;;;4983884;28;20105;-36
2023/07/07 00:20:16;;;;;;;7.95;3.08;;;;;;;;;;4973049;28;20102;-35
2023/07/07 00:22:41;;;;;;;6.05;2.83;;;;;;;;;;4983525;28;20030;-37
2023/07/07 00:25:07;;;;;;;7.32;2.50;;;;;;;;;;4982587;28;20026;-37
2023/07/07 00:27:33;;;;;;;7.28;2.97;;;;;;;;;;4980427;28;20120;-36
2023/07/07 00:29:58;;;;;;;5.20;1.65;;;;;;;;;;4987353;28;20558;-38
2023/07/07 00:32:23;;;;;;;4.32;2.90;;;;;;;;;;4982569;28;20027;-36
2023/07/07 00:34:49;;;;;;;7.13;3.40;;;;;;;;;;4987744;28;20022;-36
2023/07/07 00:37:14;;;;;;;5.80;2.60;;;;;;;;;;4978034;28;20317;-36
2023/07/07 00:39:39;;;;;;;4.70;2.80;;;;;;;;;;4984848;28;20022;-36
2023/07/07 00:42:05;;;;;;;5.03;2.93;;;;;;;;;;4984740;28;20033;-36
2023/07/07 00:44:50;;;;;;;5.72;2.92;;;;;;;;;;4978068;28;20366;-35
2023/07/07 00:47:16;;;;;;;8.63;2.72;;;;;;;;;;4985556;28;20045;-36
2023/07/07 00:49:41;;;;;;;4.43;2.70;;;;;;;;;;4984587;28;20831;-35
2023/07/07 00:52:06;;;;;;;4.13;2.50;;;;;;;;;;4986078;28;20105;-36
2023/07/07 00:54:34;;;;;;;4.68;2.53;;;;;;;;;;4982729;28;20269;-36
2023/07/07 00:57:00;;;;;;;5.97;2.83;;;;;;;;;;4988600;28;20038;-35
2023/07/07 00:59:28;;;;;;;5.65;2.72;;;;;;;;;;4990565;28;20053;-36
2023/07/07 01:01:56;;;;;;;4.90;2.53;;;;;;;;;;4980265;28;20038;-37
2023/07/07 01:04:22;;;;;;;3.00;1.77;;;;;;;;;;4990426;28;20492;-36
2023/07/07 01:06:49;;;;;;;6.63;3.00;;;;;;;;;;4991846;28;20073;-36
2023/07/07 01:09:15;;;;;;;6.28;2.65;;;;;;;;;;4989422;28;20022;-36
2023/07/07 01:11:40;;;;;;;4.70;2.90;;;;;;;;;;4987585;28;20354;-36
2023/07/07 01:14:32;;;;;;;5.13;3.05;;;;;;;;;;4987110;28;20026;-36
2023/07/07 01:17:33;;;;;;;6.47;2.83;;;;;;;;;;4998404;28;20116;-36
2023/07/07 01:20:03;;;;;;;6.72;3.15;;;;;;;;;;4900253;29;20067;-36
2023/07/07 01:22:34;;;;;;;5.68;2.85;;;;;;;;;;4965132;28;20081;-37
2023/07/07 01:25:32;;;;;;;7.63;3.33;;;;;;;;;;4976943;28;20034;-36
2023/07/07 01:27:57;;;;;;;2.97;1.73;;;;;;;;;;4959288;28;20050;-37
2023/07/07 01:30:41;;;;;;;7.27;2.90;;;;;;;;;;4971529;28;20018;-36
2023/07/07 01:33:08;;;;;;;4.57;3.35;;;;;;;;;;4987448;28;20121;-37
2023/07/07 01:35:34;;;;;;;3.92;2.83;;;;;;;;;;4989476;28;22924;-37
2023/07/07 01:38:00;;;;;;;6.57;2.97;;;;;;;;;;4990164;28;20030;-37
2023/07/07 01:40:35;;;;;;;6.90;3.20;;;;;;;;;;4987886;28;20384;-37
2023/07/07 01:43:05;;;;;;;4.28;3.03;;;;;;;;;;4989969;28;20058;-37
2023/07/07 01:46:06;;;;;;;4.38;3.05;;;;;;;;;;4989022;28;20038;-36
2023/07/07 01:48:39;;;;;;;3.90;2.47;;;;;;;;;;4901054;29;20054;-37
2023/07/07 01:51:06;;;;;;;5.57;2.92;;;;;;;;;;4975549;28;20045;-36
2023/07/07 01:53:32;;;;;;;6.00;4.28;;;;;;;;;;4988631;28;20471;-36
2023/07/07 01:55:59;;;;;;;6.88;3.33;;;;;;;;;;4988067;28;20745;-36
2023/07/07 01:58:25;;;;;;;4.82;2.80;;;;;;;;;;4987667;28;20026;-37
2023/07/07 02:00:51;;;;;;;5.75;3.40;;;;;;;;;;4989307;28;20393;-36
2023/07/07 02:03:17;;;;;;;5.25;3.22;;;;;;;;;;4979891;28;20561;-36
2023/07/07 02:05:42;;;;;;;10.05;2.97;;;;;;;;;;4984007;28;20023;-36
2023/07/07 02:08:07;;;;;;;5.40;2.97;;;;;;;;;;4984410;28;20504;-37
2023/07/07 02:10:33;;;;;;;7.38;3.47;;;;;;;;;;4983242;28;20324;-37
2023/07/07 02:12:58;;;;;;;5.88;3.10;;;;;;;;;;4983409;28;20054;-36
2023/07/07 02:15:23;;;;;;;8.77;3.27;;;;;;;;;;4980369;28;20405;-36
2023/07/07 02:17:49;;;;;;;5.47;2.90;;;;;;;;;;4981106;28;20289;-37
2023/07/07 02:20:15;;;;;;;6.97;3.08;;;;;;;;;;4979532;28;20958;-37
2023/07/07 02:22:40;;;;;;;2.95;1.92;;;;;;;;;;4984810;28;20030;-36
2023/07/07 02:25:06;;;;;;;5.90;3.47;;;;;;;;;;4981751;28;20034;-36
2023/07/07 02:27:31;;;;;;;4.90;2.85;;;;;;;;;;4979944;28;20773;-37
2023/07/07 02:29:56;;;;;;;7.18;2.60;;;;;;;;;;4985619;28;20050;-36
2023/07/07 02:32:22;;;;;;;5.80;2.80;;;;;;;;;;4983158;28;20031;-36
2023/07/07 02:34:47;;;;;;;6.68;2.88;;;;;;;;;;4986187;28;20335;-36
2023/07/07 02:37:16;;;;;;;4.60;3.17;;;;;;;;;;4978513;28;20439;-36
2023/07/07 02:39:42;;;;;;;4.97;3.30;;;;;;;;;;4982714;28;20019;-36
2023/07/07 02:42:08;;;;;;;4.63;3.13;;;;;;;;;;4981964;28;20041;-36
2023/07/07 02:44:33;;;;;;;6.53;3.93;;;;;;;;;;4978738;28;20022;-37
2023/07/07 02:46:58;;;;;;;4.83;2.90;;;;;;;;;;4980352;28;20321;-37
2023/07/07 02:49:23;;;;;;;5.70;3.60;;;;;;;;;;4986751;28;20033;-36
2023/07/07 02:51:48;;;;;;;4.90;3.10;;;;;;;;;;4987600;28;20289;-37
2023/07/07 02:54:14;;;;;;;8.43;3.23;;;;;;;;;;4988609;28;20286;-36
2023/07/07 02:56:39;;;;;;;5.93;3.60;;;;;;;;;;4976901;28;20026;-36
2023/07/07 02:59:05;;;;;;;4.37;2.90;;;;;;;;;;4979559;28;20027;-36
2023/07/07 03:01:32;;;;;;;5.85;2.83;;;;;;;;;;4986296;28;20417;-35
2023/07/07 03:03:58;;;;;;;5.47;3.33;;;;;;;;;;4982201;28;20528;-36
2023/07/07 03:06:23;;;;;;;4.85;3.60;;;;;;;;;;4987587;28;20030;-38
2023/07/07 03:08:49;;;;;;;7.68;3.47;;;;;;;;;;4985789;28;20162;-36
2023/07/07 03:11:16;;;;;;;3.58;2.20;;;;;;;;;;4983579;28;20130;-38
2023/07/07 03:13:42;;;;;;;5.53;3.55;;;;;;;;;;4984356;28;20018;-36
2023/07/07 03:16:08;;;;;;;5.28;3.28;;;;;;;;;;4988442;28;20027;-36
2023/07/07 03:18:33;;;;;;;7.70;3.38;;;;;;;;;;4984852;28;20433;-37
2023/07/07 03:20:58;;;;;;;38.83;22.58;;;;;;;;;;4979858;28;20030;-36
2023/07/07 03:23:24;;;;;;;61.03;36.57;;;;;;;;;;4976599;28;20037;-36
2023/07/07 03:25:49;;;;;;;21.13;12.30;;;;;;;;;;4982921;28;20285;-37
2023/07/07 03:28:14;;;;;;;8.02;4.63;;;;;;;;;;4977387;28;20311;-37
2023/07/07 03:30:40;;;;;;;6.18;3.95;;;;;;;;;;4989241;28;20026;-37
2023/07/07 03:33:05;;;;;;;7.32;3.83;;;;;;;;;;4988961;28;20050;-37
2023/07/07 03:35:31;;;;;;;4.43;3.37;;;;;;;;;;4986972;28;20034;-37
2023/07/07 03:37:56;;;;;;;5.53;3.10;;;;;;;;;;4978723;28;20307;-36
2023/07/07 03:40:21;;;;;;;5.37;3.27;;;;;;;;;;4984129;28;20343;-37
2023/07/07 03:42:46;;;;;;;4.63;3.40;;;;;;;;;;4985252;28;20676;-37
2023/07/07 03:45:12;;;;;;;6.03;4.10;;;;;;;;;;4979123;28;20316;-37
2023/07/07 03:47:37;;;;;;;6.15;3.50;;;;;;;;;;4985009;28;20312;-37
2023/07/07 03:50:03;;;;;;;4.70;3.30;;;;;;;;;;4986895;28;20109;-37
2023/07/07 03:52:28;;;;;;;7.65;3.00;;;;;;;;;;4987187;28;20096;-37
2023/07/07 03:54:53;;;;;;;58.38;33.47;;;;;;;;;;4987819;28;20033;-37
2023/07/07 03:57:18;;;;;;;62.87;34.67;;;;;;;;;;4988677;28;20034;-37
2023/07/07 03:59:44;;;;;;;7.43;4.38;;;;;;;;;;4989275;28;20368;-37
2023/07/07 04:02:09;;;;;;;7.80;4.03;;;;;;;;;;4981316;28;20393;-36
2023/07/07 04:04:34;;;;;;;6.43;3.40;;;;;;;;;;4984111;28;20026;-36
2023/07/07 04:07:00;;;;;;;6.60;3.73;;;;;;;;;;4984682;28;20034;-37
2023/07/07 04:09:25;;;;;;;6.23;3.93;;;;;;;;;;4985319;28;20648;-36
2023/07/07 04:11:51;;;;;;;8.25;3.80;;;;;;;;;;4980750;28;20278;-37
2023/07/07 04:14:17;;;;;;;7.63;3.88;;;;;;;;;;4984535;28;20499;-36
2023/07/07 04:16:42;;;;;;;6.65;3.78;;;;;;;;;;4986394;28;20512;-36
2023/07/07 04:19:08;;;;;;;8.93;3.73;;;;;;;;;;4979125;28;20105;-36
2023/07/07 04:21:34;;;;;;;5.18;3.88;;;;;;;;;;4984655;28;20258;-37
2023/07/07 04:24:00;;;;;;;5.50;3.60;;;;;;;;;;4987626;28;20479;-37
2023/07/07 04:26:26;;;;;;;4.20;2.28;;;;;;;;;;4982503;28;20022;-37
2023/07/07 04:28:52;;;;;;;6.82;4.07;;;;;;;;;;4978497;28;20173;-36
2023/07/07 04:31:20;;;;;;;5.55;3.25;;;;;;;;;;4989065;28;20106;-36
2023/07/07 04:33:45;;;;;;;7.85;4.13;;;;;;;;;;4984875;28;20701;-36
2023/07/07 04:36:12;;;;;;;6.53;3.58;;;;;;;;;;4988871;28;20160;-35
2023/07/07 04:38:38;;;;;;;6.10;4.45;;;;;;;;;;4990354;28;20026;-35
2023/07/07 04:41:09;;;;;;;6.13;3.87;;;;;;;;;;4986536;28;20044;-37
2023/07/07 04:43:35;;;;;;;9.30;4.05;;;;;;;;;;4992736;28;20269;-37
2023/07/07 04:46:01;;;;;;;8.80;4.28;;;;;;;;;;4991730;28;20038;-37
2023/07/07 04:48:27;;;;;;;5.18;3.45;;;;;;;;;;4989752;28;20014;-36
2023/07/07 04:50:59;;;;;;;7.50;4.30;;;;;;;;;;4974782;28;20681;-36
2023/07/07 04:53:25;;;;;;;;;;;;;;;;;;4988287;28;20481;-37
2023/07/07 04:55:50;;;;;;;7.35;4.43;;;;;;;;;;4985361;28;19918;-36
2023/07/07 04:58:16;;;;;;;7.00;3.80;;;;;;;;;;4988238;28;20117;-36
2023/07/07 05:00:41;;;;;;;10.13;4.27;;;;;;;;;;4986719;28;20026;-38
2023/07/07 05:03:06;;;;;;;6.57;3.70;;;;;;;;;;4982530;28;20858;-35
2023/07/07 05:05:34;;;;;;;7.97;3.40;;;;;;;;;;4988604;28;20375;-36
2023/07/07 05:08:00;;;;;;;7.03;3.67;;;;;;;;;;4984490;28;20289;-37
2023/07/07 05:10:25;;;;;;;7.10;4.40;;;;;;;;;;4973777;28;20455;-35
2023/07/07 05:12:50;;;;;;;5.53;3.80;;;;;;;;;;4988613;28;20027;-35
2023/07/07 05:15:16;;;;;;;4.70;3.53;;;;;;;;;;4989028;28;20452;-34
2023/07/07 05:17:41;;;;;;;8.70;4.00;;;;;;;;;;4990447;28;20022;-35
2023/07/07 05:20:06;;;;;;;6.13;4.00;;;;;;;;;;4990675;28;20029;-36
2023/07/07 05:22:32;;;;;;;6.60;3.75;;;;;;;;;;4986654;28;20811;-35
2023/07/07 05:24:57;;;;;;;10.77;4.47;;;;;;;;;;4987528;28;20030;-35
2023/07/07 05:27:22;;;;;;;7.27;4.17;;;;;;;;;;4982741;28;20034;-37
2023/07/07 05:29:49;;;;;;;5.53;3.47;;;;;;;;;;4987697;28;20285;-37
2023/07/07 05:32:14;;;;;;;6.00;3.85;;;;;;;;;;4988519;28;20382;-37
2023/07/07 05:34:40;;;;;;;6.17;3.50;;;;;;;;;;4986475;28;20532;-35
2023/07/07 05:37:05;;;;;;;6.90;3.70;;;;;;;;;;4991816;28;20272;-36
2023/07/07 05:39:30;;;;;;;8.55;3.15;;;;;;;;;;4986205;28;20407;-35
2023/07/07 05:41:56;;;;;;;7.47;3.20;;;;;;;;;;4990094;28;20042;-36
2023/07/07 05:44:21;;;;;;;6.83;4.00;;;;;;;;;;4984059;28;20287;-38
2023/07/07 05:46:46;;;;;;;4.30;2.20;;;;;;;;;;4988859;28;20368;-35
2023/07/07 05:49:12;;;;;;;6.80;3.90;;;;;;;;;;4989878;28;20958;-36
2023/07/07 05:51:37;;;;;;;7.70;3.80;;;;;;;;;;4987367;28;20085;-35
2023/07/07 05:54:02;;;;;;;5.13;4.27;;;;;;;;;;4975462;28;20049;-36
2023/07/07 05:56:28;;;;;;;5.82;2.47;;;;;;;;;;4978252;28;20026;-36
2023/07/07 05:58:54;;;;;;;6.00;3.08;;;;;;;;;;4989045;28;20042;-35
2023/07/07 06:01:20;;;;;;;4.93;3.08;;;;;;;;;;4987200;28;20026;-36
2023/07/07 06:03:45;;;;;;;8.57;2.95;;;;;;;;;;4987960;28;20523;-37
2023/07/07 06:06:10;;;;;;;5.63;3.15;;;;;;;;;;4986304;28;20462;-35
2023/07/07 06:08:36;;;;;;;9.85;2.80;;;;;;;;;;4985607;28;20019;-35
2023/07/07 06:11:01;;;;;;;5.70;3.10;;;;;;;;;;4987477;28;20030;-35
2023/07/07 06:13:28;;;;;;;5.95;2.72;;;;;;;;;;4983041;28;20025;-36
2023/07/07 06:15:54;;;;;;;5.60;2.95;;;;;;;;;;4971061;28;20029;-35
2023/07/07 06:18:19;;;;;;;4.53;3.00;;;;;;;;;;4973048;28;20031;-37
2023/07/07 06:20:49;;;;;;;4.38;2.90;;;;;;;;;;4981913;28;20034;-38
2023/07/07 06:23:14;;;;;;;6.55;2.63;;;;;;;;;;4979455;28;20030;-37
2023/07/07 06:25:39;;;;;;;4.30;2.95;;;;;;;;;;4984409;28;20624;-36
2023/07/07 06:28:04;;;;;;;6.30;3.30;;;;;;;;;;4986325;28;20527;-36
2023/07/07 06:30:30;;;;;;;6.63;3.87;;;;;;;;;;4984418;28;20023;-35
2023/07/07 06:32:58;;;;;;;6.40;2.80;;;;;;;;;;4982060;28;20313;-36
2023/07/07 06:35:23;;;;;;;6.45;2.55;;;;;;;;;;4981381;28;20352;-36
2023/07/07 06:37:49;;;;;;;8.18;3.65;;;;;;;;;;4982627;28;20452;-35
2023/07/07 06:40:14;;;;;;;5.13;2.90;;;;;;;;;;4987346;28;20478;-35
2023/07/07 06:42:39;;;;;;;5.47;3.50;;;;;;;;;;4983664;28;20278;-36
2023/07/07 06:45:05;;;;;;;5.40;2.67;;;;;;;;;;4988336;28;20504;-38
2023/07/07 06:47:30;;;;;;;6.80;2.83;;;;;;;;;;4986046;28;20301;-35
2023/07/07 06:49:55;;;;;;;3.63;2.20;;;;;;;;;;4990009;28;20030;-36
2023/07/07 06:52:22;;;;;;;7.15;2.00;;;;;;;;;;4988336;28;20301;-36
2023/07/07 06:54:47;;;;;;;7.47;2.50;;;;;;;;;;4988331;28;20022;-36
2023/07/07 06:57:12;;;;;;;4.07;2.03;;;;;;;;;;4989451;28;20022;-36
2023/07/07 06:59:38;;;;;;;6.97;2.20;;;;;;;;;;4988853;28;20756;-35
2023/07/07 07:02:03;;;;;;;3.30;2.17;;;;;;;;;;4987296;28;20286;-35
2023/07/07 07:04:29;;;;;;;7.35;2.22;;;;;;;;;;4990333;28;20065;-36
2023/07/07 07:06:54;;;;;;;5.30;1.95;;;;;;;;;;4986947;28;20124;-35
2023/07/07 07:09:19;;;;;;;4.10;2.10;;;;;;;;;;4989352;28;20036;-36
2023/07/07 07:11:44;;;;;;;5.63;1.90;;;;;;;;;;4982129;28;20057;-36
2023/07/07 07:14:10;;;;;;;8.13;3.03;;;;;;;;;;4989323;28;20031;-35
2023/07/07 07:16:35;;;;;;;7.83;2.00;;;;;;;;;;4988261;28;20283;-36
2023/07/07 07:19:00;;;;;;;5.57;1.90;;;;;;;;;;4986136;28;20062;-35
2023/07/07 07:21:25;;;;;;;4.33;1.63;;;;;;;;;;5026089;23;20033;-41
2023/07/07 07:23:51;;;;;;;1.83;1.15;;;;;;;;;;5009077;28;20040;-41
2023/07/07 07:26:17;;;;;;;4.10;1.92;;;;;;;;;;5019941;28;20052;-43
2023/07/07 07:28:42;;;;;;;5.55;2.15;;;;;;;;;;5020456;28;20043;-41
2023/07/07 07:31:07;;;;;;;2.97;1.50;;;;;;;;;;5001575;28;20030;-41
2023/07/07 07:33:33;;;;;;;4.87;1.93;;;;;;;;;;5007313;28;20025;-43
2023/07/07 07:35:58;;;;;;;3.60;1.90;;;;;;;;;;5007031;28;20768;-42
2023/07/07 07:38:24;;;;;;;3.60;1.60;;;;;;;;;;5007794;28;20083;-41
2023/07/07 07:40:53;;;;;;;3.30;2.00;;;;;;;;;;5008619;28;20770;-41
2023/07/07 07:43:18;;;;;;;5.22;1.83;;;;;;;;;;5007593;28;20025;-41
2023/07/07 07:45:44;;;;;;;7.10;1.70;;;;;;;;;;5001429;28;20105;-41
2023/07/07 07:48:09;;;;;;;3.63;1.70;;;;;;;;;;5009010;28;20639;-41
2023/07/07 07:50:34;;;;;;;6.70;2.10;;;;;;;;;;5007225;28;20389;-42
2023/07/07 07:53:00;;;;;;;5.63;2.00;;;;;;;;;;5004454;28;20281;-41
2023/07/07 07:55:26;;;;;;;5.43;2.20;;;;;;;;;;5004832;28;20034;-41
2023/07/07 07:57:51;;;;;;;4.30;1.90;;;;;;;;;;5009391;28;20073;-43
2023/07/07 08:00:17;;;;;;;6.28;2.50;;;;;;;;;;5003796;28;20437;-41
2023/07/07 08:02:43;;;;;;;3.80;1.73;;;;;;;;;;5005615;28;20030;-42
2023/07/07 08:05:08;;;;;;;6.22;1.77;;;;;;;;;;5002029;28;20095;-41
2023/07/07 08:07:33;;;;;;;3.35;1.85;;;;;;;;;;5006063;28;20033;-42
2023/07/07 08:09:59;;;;;;;6.03;2.30;;;;;;;;;;5011055;28;20068;-40
2023/07/07 08:12:24;;;;;;;4.03;1.70;;;;;;;;;;5010885;28;20166;-41
2023/07/07 08:14:50;;;;;;;10.05;3.53;;;;;;;;;;5010037;28;20018;-41
2023/07/07 08:17:15;;;;;;;4.23;2.33;;;;;;;;;;4992884;28;20045;-42
2023/07/07 08:19:41;;;;;;;4.88;1.90;;;;;;;;;;4998355;28;20318;-41
2023/07/07 08:22:08;;;;;;;4.05;2.38;;;;;;;;;;5008647;28;20072;-41
2023/07/07 08:24:41;;;;;;;4.40;2.15;;;;;;;;;;4990940;28;20025;-42
2023/07/07 08:27:07;;;;;;;4.05;1.50;;;;;;;;;;5004616;28;20541;-41
2023/07/07 08:29:32;;;;;;;3.97;1.67;;;;;;;;;;5005671;28;20014;-42
2023/07/07 08:31:58;;;;;;;2.72;1.60;;;;;;;;;;4997070;28;20449;-41
2023/07/07 08:34:23;;;;;;;3.75;1.60;;;;;;;;;;5006292;28;20072;-41
2023/07/07 08:36:48;;;;;;;6.43;2.00;;;;;;;;;;5008238;28;20017;-41
2023/07/07 08:39:18;;;;;;;4.18;1.48;;;;;;;;;;5010602;28;20029;-41
2023/07/07 08:41:55;;;;;;;3.42;1.63;;;;;;;;;;5006464;28;20171;-42
2023/07/07 08:44:22;;;;;;;4.88;1.77;;;;;;;;;;5009616;28;20487;-42
2023/07/07 08:46:52;;;;;;;3.65;1.80;;;;;;;;;;5011665;28;20057;-41
2023/07/07 08:49:21;;;;;;;3.00;1.92;;;;;;;;;;5007786;28;20026;-41
2023/07/07 08:51:53;;;;;;;4.05;1.70;;;;;;;;;;5006796;28;20014;-41
2023/07/07 08:54:23;;;;;;;4.18;1.80;;;;;;;;;;5009595;28;20022;-43
2023/07/07 08:57:03;;;;;;;5.43;1.75;;;;;;;;;;5004862;28;20032;-41
2023/07/07 08:59:39;;;;;;;6.75;2.05;;;;;;;;;;5014195;28;20026;-43
2023/07/07 09:02:16;;;;;;;4.47;1.27;;;;;;;;;;4995238;28;20346;-41
2023/07/07 09:04:41;;;;;;;1.92;0.95;;;;;;;;;;5007239;28;20014;-41
2023/07/07 09:07:27;;;;;;;5.43;1.50;;;;;;;;;;5006843;28;20115;-43
2023/07/07 09:09:58;;;;;;;3.40;1.75;;;;;;;;;;4964266;28;20647;-41
2023/07/07 09:12:26;;;;;;;3.60;1.65;;;;;;;;;;5007687;28;20026;-41
2023/07/07 09:14:53;;;;;;;3.72;1.52;;;;;;;;;;5010253;28;20022;-41
2023/07/07 09:17:22;;;;;;;2.83;1.23;;;;;;;;;;5002608;28;20111;-41
2023/07/07 09:19:48;;;;;;;4.25;1.73;;;;;;;;;;4982486;28;20122;-41
2023/07/07 09:22:21;;;;;;;3.55;1.73;;;;;;;;;;4994462;28;20436;-41
2023/07/07 09:24:51;;;;;;;2.83;1.50;;;;;;;;;;5008128;28;20124;-41
2023/07/07 09:27:19;;;;;;;4.65;2.65;;;;;;;;;;5009445;28;20025;-41
2023/07/07 09:29:45;;;;;;;4.93;2.10;;;;;;;;;;4996154;28;20105;-41
2023/07/07 09:32:11;;;;;;;3.53;1.50;;;;;;;;;;4995869;28;20033;-41
2023/07/07 09:34:37;;;;;;;3.70;1.50;;;;;;;;;;4985747;28;20037;-41
2023/07/07 09:37:02;;;;;;;4.78;1.95;;;;;;;;;;4990696;28;20033;-42
2023/07/07 09:39:30;;;;;;;5.63;1.83;;;;;;;;;;5004289;28;20048;-41
2023/07/07 09:42:14;;;;;;;4.63;1.70;;;;;;;;;;5005612;28;20276;-41
2023/07/07 09:44:39;;;;;;;2.33;1.52;;;;;;;;;;5008078;28;20037;-41
2023/07/07 09:47:06;;;;;;;6.20;1.50;;;;;;;;;;5008584;28;20026;-41
2023/07/07 09:49:47;;;;;;;5.40;1.42;;;;;;;;;;5005212;28;20133;-42
2023/07/07 09:52:12;;;;;;;2.90;1.40;;;;;;;;;;5006238;28;20029;-42
2023/07/07 09:54:38;;;;;;;3.83;1.40;;;;;;;;;;5007731;28;20033;-42
2023/07/07 09:57:33;;;;;;;2.72;1.50;;;;;;;;;;4996300;28;20026;-41
2023/07/07 09:59:59;;;;;;;3.20;1.58;;;;;;;;;;4964016;28;21285;-41
2023/07/07 10:02:25;;;;;;;2.75;1.65;;;;;;;;;;4997476;28;20036;-43
2023/07/07 10:04:54;;;;;;;1.92;1.10;;;;;;;;;;5005609;28;20120;-40
2023/07/07 10:07:20;;;;;;;4.13;1.65;;;;;;;;;;5007143;28;20538;-41
2023/07/07 10:09:46;;;;;;;5.78;2.28;;;;;;;;;;5000905;28;20029;-41
2023/07/07 10:12:13;;;;;;;2.53;1.42;;;;;;;;;;5006864;28;20072;-42
2023/07/07 10:14:39;;;;;;;8.07;1.33;;;;;;;;;;5005080;28;20010;-42
2023/07/07 10:17:10;;;;;;;3.28;1.38;;;;;;;;;;5007293;28;20037;-42
2023/07/07 10:19:41;;;;;;;4.07;2.17;;;;;;;;;;5000290;28;20057;-42
2023/07/07 10:22:06;;;;;;;3.85;1.75;;;;;;;;;;4998303;28;20115;-41
2023/07/07 10:24:32;;;;;;;4.50;1.40;;;;;;;;;;4986356;28;20038;-41
2023/07/07 10:26:58;;;;;;;3.03;1.30;;;;;;;;;;5001852;28;20691;-41
2023/07/07 10:29:28;;;;;;;3.50;1.65;;;;;;;;;;5003874;28;20030;-42
2023/07/07 10:31:53;;;;;;;3.85;1.58;;;;;;;;;;4981736;28;20068;-41
2023/07/07 10:34:21;;;;;;;3.23;1.63;;;;;;;;;;5000677;28;20708;-41
2023/07/07 10:36:46;;;;;;;2.75;1.73;;;;;;;;;;5001450;28;20375;-41
2023/07/07 10:39:12;;;;;;;7.20;1.67;;;;;;;;;;5003399;28;20416;-42
2023/07/07 10:41:37;;;;;;;4.00;1.42;;;;;;;;;;5001139;28;20284;-41
2023/07/07 10:44:03;;;;;;;3.70;2.03;;;;;;;;;;4999960;28;20030;-42
2023/07/07 10:46:28;;;;;;;3.67;1.83;;;;;;;;;;5002888;28;20156;-41
2023/07/07 10:48:55;;;;;;;3.87;1.67;;;;;;;;;;4999302;28;24576;-43
2023/07/07 10:51:28;;;;;;;6.30;1.90;;;;;;;;;;5000933;28;20484;-41
2023/07/07 10:54:13;;;;;;;2.72;1.48;;;;;;;;;;5005512;28;20116;-41
2023/07/07 10:56:44;;;;;;;5.63;1.58;;;;;;;;;;4993586;28;20083;-41
2023/07/07 10:59:16;;;;;;;8.48;2.45;;;;;;;;;;5003356;28;20018;-42
2023/07/07 11:01:59;;;;;;;4.47;1.75;;;;;;;;;;5000199;28;20034;-41
2023/07/07 11:04:24;;;;;;;3.60;1.60;;;;;;;;;;5000653;28;20029;-41
2023/07/07 11:07:08;;;;;;;4.63;1.90;;;;;;;;;;5002022;28;24084;-42
2023/07/07 11:09:34;;;;;;;2.72;1.42;;;;;;;;;;5002877;28;20036;-41
2023/07/07 11:12:21;;;;;;;3.95;1.75;;;;;;;;;;5007168;28;20030;-41
2023/07/07 11:14:52;;;;;;;4.68;1.27;;;;;;;;;;4980737;28;20040;-42
2023/07/07 11:17:17;;;;;;;3.55;1.95;;;;;;;;;;4999231;28;20018;-43
2023/07/07 11:20:08;;;;;;;3.80;1.17;;;;;;;;;;5002540;28;20569;-41
2023/07/07 11:22:42;;;;;;;4.10;1.67;;;;;;;;;;5004887;28;20026;-41
2023/07/07 11:25:17;;;;;;;2.40;1.17;;;;;;;;;;5005208;28;20022;-42
2023/07/07 11:28:08;;;;;;;5.10;1.40;;;;;;;;;;5000336;28;20025;-41
2023/07/07 11:30:52;;;;;;;6.55;1.60;;;;;;;;;;4993827;28;20030;-42
2023/07/07 11:33:18;;;;;;;3.92;2.00;;;;;;;;;;4985672;28;20033;-42
2023/07/07 11:35:46;;;;;;;2.30;1.50;;;;;;;;;;4996148;28;20026;-42
2023/07/07 11:38:20;;;;;;;3.03;1.65;;;;;;;;;;5009201;28;20611;-41
2023/07/07 11:40:59;;;;;;;6.18;1.65;;;;;;;;;;5003471;28;21000;-43
2023/07/07 11:43:39;;;;;;;5.38;1.85;;;;;;;;;;5008050;28;20038;-42
2023/07/07 11:46:11;;;;;;;4.25;1.52;;;;;;;;;;5010835;28;20363;-41
2023/07/07 11:48:55;;;;;;;5.88;2.88;;;;;;;;;;5012081;28;20034;-41
2023/07/07 11:51:36;;;;;;;3.88;1.83;;;;;;;;;;5004754;28;20030;-41
2023/07/07 11:54:20;;;;;;;3.88;2.00;;;;;;;;;;5004436;28;20165;-41
2023/07/07 11:56:51;;;;;;;6.07;1.90;;;;;;;;;;5008210;28;20018;-42
2023/07/07 11:59:35;;;;;;;4.35;1.80;;;;;;;;;;5003093;28;20506;-41
2023/07/07 12:02:01;;;;;;;1.88;1.05;;;;;;;;;;5005347;28;20104;-41
2023/07/07 12:04:40;;;;;;;3.00;1.70;;;;;;;;;;4990928;28;20419;-41
2023/07/07 12:07:09;;;;;;;7.65;3.00;;;;;;;;;;5011566;28;20461;-41
2023/07/07 12:09:43;;;;;;;5.50;1.70;;;;;;;;;;4977807;28;20067;-41
2023/07/07 12:12:41;;;;;;;2.63;1.38;;;;;;;;;;5008548;28;20577;-44
2023/07/07 12:15:19;;;;;;;2.85;1.30;;;;;;;;;;4965058;28;20113;-41
2023/07/07 12:17:50;;;;;;;7.97;2.08;;;;;;;;;;4984688;28;20088;-43
2023/07/07 12:20:21;;;;;;;2.90;1.50;;;;;;;;;;5009824;28;20457;-41
2023/07/07 12:22:46;;;;;;;4.55;1.50;;;;;;;;;;4994180;28;20034;-42
2023/07/07 12:25:12;;;;;;;3.45;1.52;;;;;;;;;;5007912;28;20080;-43
2023/07/07 12:27:51;;;;;;;4.70;1.70;;;;;;;;;;5000024;28;20033;-43
2023/07/07 12:30:36;;;;;;;4.30;1.60;;;;;;;;;;4989676;28;20022;-43
2023/07/07 12:33:03;;;;;;;2.63;1.60;;;;;;;;;;5015404;28;20084;-41
2023/07/07 12:35:36;;;;;;;4.45;1.88;;;;;;;;;;5008157;28;20439;-42
2023/07/07 12:38:10;;;;;;;3.70;1.45;;;;;;;;;;5007440;28;20034;-42
2023/07/07 12:40:38;;;;;;;3.95;1.65;;;;;;;;;;5008741;28;20084;-41
2023/07/07 12:43:15;;;;;;;3.70;1.83;;;;;;;;;;4988213;28;20014;-43
2023/07/07 12:45:40;;;;;;;3.78;1.50;;;;;;;;;;4988560;28;20023;-41
2023/07/07 12:48:13;;;;;;;5.53;1.67;;;;;;;;;;4992425;28;20026;-41
2023/07/07 12:50:39;;;;;;;5.35;1.85;;;;;;;;;;4992699;28;20081;-42
2023/07/07 12:53:09;;;;;;;4.80;2.05;;;;;;;;;;5010183;28;20014;-41
2023/07/07 12:55:38;;;;;;;6.25;2.65;;;;;;;;;;5000889;28;20014;-41
2023/07/07 12:58:06;;;;;;;4.05;1.65;;;;;;;;;;5008819;28;20432;-41
2023/07/07 13:00:33;;;;;;;4.88;1.77;;;;;;;;;;5009846;28;20030;-42
2023/07/07 13:03:12;;;;;;;6.28;2.33;;;;;;;;;;4984309;28;20022;-41
2023/07/07 13:05:45;;;;;;;2.78;1.77;;;;;;;;;;5009531;28;20539;-41
2023/07/07 13:08:11;;;;;;;5.82;2.40;;;;;;;;;;5003423;28;20021;-41
2023/07/07 13:10:42;;;;;;;3.65;1.73;;;;;;;;;;5016763;28;20028;-43
2023/07/07 13:13:18;;;;;;;3.00;1.42;;;;;;;;;;5008951;28;20022;-41
2023/07/07 13:15:43;;;;;;;7.68;1.70;;;;;;;;;;5006022;28;20036;-42
2023/07/07 13:18:10;;;;;;;3.37;1.53;;;;;;;;;;4990520;28;20132;-41
2023/07/07 13:20:37;;;;;;;3.38;1.70;;;;;;;;;;4993813;28;20034;-42
2023/07/07 13:23:08;;;;;;;10.98;6.95;;;;;;;;;;5001934;28;20085;-42
2023/07/07 13:25:34;;;;;;;7.90;2.17;;;;;;;;;;5009388;28;20018;-41
2023/07/07 13:28:00;;;;;;;7.95;1.83;;;;;;;;;;5001197;28;20093;-41
2023/07/07 13:30:25;;;;;;;5.28;1.92;;;;;;;;;;5013596;28;20097;-41
2023/07/07 13:32:52;;;;;;;6.03;2.83;;;;;;;;;;5010482;28;20121;-42
2023/07/07 13:35:18;;;;;;;3.53;1.55;;;;;;;;;;4998285;28;20056;-43
2023/07/07 13:37:43;;;;;;;4.25;1.60;;;;;;;;;;5014356;28;20115;-41
2023/07/07 13:40:12;;;;;;;5.47;1.95;;;;;;;;;;5013570;28;20021;-41
2023/07/07 13:42:38;;;;;;;2.88;1.45;;;;;;;;;;5009141;28;20022;-42
2023/07/07 13:45:06;;;;;;;3.07;1.33;;;;;;;;;;5006150;28;20022;-41
2023/07/07 13:47:32;;;;;;;8.30;1.60;;;;;;;;;;4994570;28;20042;-41
2023/07/07 13:49:58;;;;;;;3.63;1.40;;;;;;;;;;5003627;28;20096;-41
2023/07/07 13:52:25;;;;;;;7.00;1.90;;;;;;;;;;5009325;28;20080;-42
2023/07/07 13:54:50;;;;;;;6.85;2.95;;;;;;;;;;4996619;28;20022;-42
2023/07/07 13:57:22;;;;;;;4.93;1.60;;;;;;;;;;5011448;28;20080;-42
2023/07/07 13:59:48;;;;;;;3.15;1.52;;;;;;;;;;5007352;28;20038;-41
2023/07/07 14:02:15;;;;;;;3.80;1.33;;;;;;;;;;5010149;28;20022;-44
2023/07/07 14:04:43;;;;;;;4.28;1.30;;;;;;;;;;4984284;28;20022;-41
2023/07/07 14:07:15;;;;;;;10.65;5.22;;;;;;;;;;5004125;28;20116;-41
2023/07/07 14:09:42;;;;;;;3.65;2.03;;;;;;;;;;5002673;28;20102;-42
2023/07/07 14:12:10;;;;;;;7.00;2.08;;;;;;;;;;4995391;28;20084;-41
2023/07/07 14:14:35;;;;;;;2.80;1.70;;;;;;;;;;4990536;28;20105;-42
2023/07/07 14:17:04;;;;;;;3.05;1.23;;;;;;;;;;5005629;28;20108;-43
2023/07/07 14:19:46;;;;;;;3.45;1.30;;;;;;;;;;5004962;28;20058;-42
2023/07/07 14:22:12;;;;;;;5.43;3.15;;;;;;;;;;4982423;28;20038;-42
2023/07/07 14:24:37;;;;;;;5.75;2.67;;;;;;;;;;5011779;28;20109;-41
2023/07/07 14:27:03;;;;;;;4.25;1.30;;;;;;;;;;5014140;28;20036;-42
2023/07/07 14:29:33;;;;;;;4.50;1.70;;;;;;;;;;4988496;28;20022;-41
2023/07/07 14:32:02;;;;;;;3.08;1.70;;;;;;;;;;5007829;28;20110;-42
2023/07/07 14:34:27;;;;;;;4.18;1.83;;;;;;;;;;5008508;28;20045;-41
2023/07/07 14:36:55;;;;;;;8.10;2.80;;;;;;;;;;5014485;28;20048;-42
2023/07/07 14:39:23;;;;;;;4.80;2.08;;;;;;;;;;5009835;28;20030;-41
2023/07/07 14:41:51;;;;;;;7.15;1.60;;;;;;;;;;5004307;28;20554;-42
2023/07/07 14:44:35;;;;;;;5.97;2.30;;;;;;;;;;5006638;28;20026;-41
2023/07/07 14:47:01;;;;;;;2.40;1.38;;;;;;;;;;5002636;28;20027;-41
2023/07/07 14:49:26;;;;;;;5.95;1.73;;;;;;;;;;5009053;28;20388;-42